Time;durP1;ratioP1;P1;durP2;ratioP2;P2;SDS_P1;SDS_P2;PMS_P1;PMS_P2;Temp;Humidity;BMP_temperature;BMP_pressure;BME280_temperature;BME280_humidity;BME280_pressure;Samples;Min_cycle;Max_cycle;Signal;HPM_P1;HPM_P2
2022/09/16 00:00:47;;;;;;;;;;;;;;;;;;4993361;28;20295;-82
2022/09/16 00:03:13;;;;;;;;;;;;;;;;;;4993410;28;19921;-80
2022/09/16 00:05:38;;;;;;;;;;;;;;;;;;4992096;28;19913;-80
2022/09/16 00:08:04;;;;;;;;;;;;;;;;;;4981550;28;20304;-83
2022/09/16 00:10:29;;;;;;;;;;;;;;;;;;4993250;28;19914;-82
2022/09/16 00:12:55;;;;;;;;;;;;;;;;;;4975643;28;19913;-84
2022/09/16 00:15:20;;;;;;;;;;;;;;;;;;4991805;28;19925;-83
2022/09/16 00:17:46;;;;;;;;;;;;;;;;;;4993080;28;19913;-81
2022/09/16 00:20:11;;;;;;;;;;;;;;;;;;4993059;28;19914;-82
2022/09/16 00:22:36;;;;;;;;;;;;;;;;;;4992816;28;20011;-80
2022/09/16 00:25:02;;;;;;;;;;;;;;;;;;4991340;28;20003;-83
2022/09/16 00:27:27;;;;;;;;;;;;;;;;;;4991938;28;19917;-83
2022/09/16 00:29:52;;;;;;;;;;;;;;;;;;4992668;28;20005;-80
2022/09/16 00:32:18;;;;;;;;;;;;;;;;;;4973492;28;20297;-83
2022/09/16 00:34:43;;;;;;;;;;;;;;;;;;4981540;28;19925;-80
2022/09/16 00:37:08;;;;;;;;;;;;;;;;;;4992890;28;19976;-81
2022/09/16 00:39:34;;;;;;;;;;;;;;;;;;4991689;28;19914;-82
2022/09/16 00:41:59;;;;;;;;;;;;;;;;;;4990961;28;19914;-82
2022/09/16 00:44:25;;;;;;;;;;;;;;;;;;4991428;28;19921;-83
2022/09/16 00:46:50;;;;;;;;;;;;;;;;;;4992765;28;19914;-83
2022/09/16 00:49:15;;;;;;;;;;;;;;;;;;4991478;28;19913;-81
2022/09/16 00:51:41;;;;;;;;;;;;;;;;;;4992678;28;19964;-82
2022/09/16 00:54:08;;;;;;;;;;;;;;;;;;4991480;28;19914;-81
2022/09/16 00:56:34;;;;;;;;;;;;;;;;;;4991467;28;20403;-80
2022/09/16 00:59:01;;;;;;;;;;;;;;;;;;4991228;28;19921;-81
2022/09/16 01:01:26;;;;;;;;;;;;;;;;;;4992717;28;19920;-83
2022/09/16 01:03:52;;;;;;;;;;;;;;;;;;4991306;28;19914;-82
2022/09/16 01:06:17;;;;;;;;;;;;;;;;;;4991368;28;19917;-83
2022/09/16 01:08:43;;;;;;;;;;;;;;;;;;4992738;28;19918;-86
2022/09/16 01:11:08;;;;;;;;;;;;;;;;;;4991537;28;19913;-84
2022/09/16 01:13:33;;;;;;;;;;;;;;;;;;4992232;28;19920;-83
2022/09/16 01:15:59;;;;;;;;;;;;;;;;;;4973718;28;19922;-82
2022/09/16 01:18:24;;;;;;;;;;;;;;;;;;4992626;28;19914;-82
2022/09/16 01:20:50;;;;;;;;;;;;;;;;;;4992707;28;19920;-82
2022/09/16 01:23:15;;;;;;;;;;;;;;;;;;4991156;28;19960;-82
2022/09/16 01:25:40;;;;;;;;;;;;;;;;;;4996590;28;19918;-84
2022/09/16 01:28:06;;;;;;;;;;;;;;;;;;4999088;28;19972;-84
2022/09/16 01:30:31;;;;;;;;;;;;;;;;;;4997898;28;19914;-82
2022/09/16 01:32:57;;;;;;;;;;;;;;;;;;4993886;23;19936;-75
2022/09/16 01:35:22;;;;;;;;;;;;;;;;;;5011461;28;19917;-75
2022/09/16 01:37:48;;;;;;;;;;;;;;;;;;5011910;28;19920;-76
2022/09/16 01:40:13;;;;;;;;;;;;;;;;;;4978160;28;20268;-76
2022/09/16 01:42:39;;;;;;;;;;;;;;;;;;5012324;28;19914;-75
2022/09/16 01:45:04;;;;;;;;;;;;;;;;;;5011457;28;19985;-76
2022/09/16 01:47:30;;;;;;;;;;;;;;;;;;5009861;28;19914;-76
2022/09/16 01:49:55;;;;;;;;;;;;;;;;;;4991010;28;19961;-75
2022/09/16 01:52:21;;;;;;;;;;;;;;;;;;5006814;28;19914;-77
2022/09/16 01:54:46;;;;;;;;;;;;;;;;;;5005898;28;19976;-76
2022/09/16 01:57:12;;;;;;;;;;;;;;;;;;4982889;28;19914;-77
2022/09/16 01:59:37;;;;;;;;;;;;;;;;;;4998483;28;20364;-75
2022/09/16 02:02:03;;;;;;;;;;;;;;;;;;4995532;28;19914;-75
2022/09/16 02:04:28;;;;;;;;;;;;;;;;;;4997631;28;19949;-76
2022/09/16 02:06:54;;;;;;;;;;;;;;;;;;4996677;28;19914;-76
2022/09/16 02:09:20;;;;;;;;;;;;;;;;;;4996912;28;19937;-75
2022/09/16 02:11:45;;;;;;;;;;;;;;;;;;4997008;28;20005;-76
2022/09/16 02:14:11;;;;;;;;;;;;;;;;;;4996881;28;19922;-75
2022/09/16 02:16:36;;;;;;;;;;;;;;;;;;4980934;28;19917;-76
2022/09/16 02:19:02;;;;;;;;;;;;;;;;;;4977969;28;19961;-76
2022/09/16 02:21:27;;;;;;;;;;;;;;;;;;4979787;28;19914;-74
2022/09/16 02:23:53;;;;;;;;;;;;;;;;;;4981260;28;20386;-74
2022/09/16 02:26:18;;;;;;;;;;;;;;;;;;4983622;28;19936;-76
2022/09/16 02:28:44;;;;;;;;;;;;;;;;;;5001220;28;20040;-75
2022/09/16 02:31:09;;;;;;;;;;;;;;;;;;4984789;28;19941;-75
2022/09/16 02:33:35;;;;;;;;;;;;;;;;;;4985897;28;19917;-75
2022/09/16 02:36:00;;;;;;;;;;;;;;;;;;4968697;28;19917;-76
2022/09/16 02:38:26;;;;;;;;;;;;;;;;;;4984947;28;20018;-76
2022/09/16 02:40:51;;;;;;;;;;;;;;;;;;4985688;28;20419;-75
2022/09/16 02:43:17;;;;;;;;;;;;;;;;;;4985003;28;19973;-75
2022/09/16 02:45:42;;;;;;;;;;;;;;;;;;4984751;28;19929;-76
2022/09/16 02:48:08;;;;;;;;;;;;;;;;;;4968229;28;19914;-75
2022/09/16 02:50:33;;;;;;;;;;;;;;;;;;4984627;28;19913;-75
2022/09/16 02:52:59;;;;;;;;;;;;;;;;;;5001933;28;20012;-74
2022/09/16 02:55:25;;;;;;;;;;;;;;;;;;4988453;28;19917;-75
2022/09/16 02:57:51;;;;;;;;;;;;;;;;;;4988786;28;19925;-77
2022/09/16 03:00:16;;;;;;;;;;;;;;;;;;5002412;28;19918;-75
2022/09/16 03:02:42;;;;;;;;;;;;;;;;;;5005398;28;20316;-75
2022/09/16 03:05:08;;;;;;;;;;;;;;;;;;5010197;28;20363;-76
2022/09/16 03:07:34;;;;;;;;;;;;;;;;;;5010741;28;19921;-76
2022/09/16 03:09:59;;;;;;;;;;;;;;;;;;5010211;28;19914;-76
2022/09/16 03:12:25;;;;;;;;;;;;;;;;;;5011308;28;20305;-75
2022/09/16 03:14:51;;;;;;;;;;;;;;;;;;5009084;28;20417;-76
2022/09/16 03:17:17;;;;;;;;;;;;;;;;;;5009436;28;19986;-75
2022/09/16 03:19:43;;;;;;;;;;;;;;;;;;4992791;28;20289;-76
2022/09/16 03:22:08;;;;;;;;;;;;;;;;;;5010895;28;20395;-75
2022/09/16 03:24:33;;;;;;;;;;;;;;;;;;4993940;28;19914;-76
2022/09/16 03:26:59;;;;;;;;;;;;;;;;;;5008161;28;19968;-77
2022/09/16 03:29:25;;;;;;;;;;;;;;;;;;5008853;28;19914;-77
2022/09/16 03:31:50;;;;;;;;;;;;;;;;;;5007366;28;19913;-74
2022/09/16 03:34:16;;;;;;;;;;;;;;;;;;5007525;28;19917;-76
2022/09/16 03:36:41;;;;;;;;;;;;;;;;;;4992878;28;19937;-75
2022/09/16 03:39:07;;;;;;;;;;;;;;;;;;5009450;28;20000;-76
2022/09/16 03:41:32;;;;;;;;;;;;;;;;;;4974847;28;20361;-76
2022/09/16 03:43:58;;;;;;;;;;;;;;;;;;5007159;28;19914;-76
2022/09/16 03:46:24;;;;;;;;;;;;;;;;;;5007952;28;20289;-75
2022/09/16 03:48:49;;;;;;;;;;;;;;;;;;5008816;28;19973;-77
2022/09/16 03:51:15;;;;;;;;;;;;;;;;;;4974037;28;20020;-75
2022/09/16 03:53:40;;;;;;;;;;;;;;;;;;5008143;28;19961;-75
2022/09/16 03:56:06;;;;;;;;;;;;;;;;;;5006056;28;20017;-76
2022/09/16 03:58:31;;;;;;;;;;;;;;;;;;4993037;28;19924;-75
2022/09/16 04:00:57;;;;;;;;;;;;;;;;;;4993457;28;19920;-75
2022/09/16 04:03:22;;;;;;;;;;;;;;;;;;5009607;28;19913;-79
2022/09/16 04:05:48;;;;;;;;;;;;;;;;;;5005235;28;19914;-75
2022/09/16 04:08:14;;;;;;;;;;;;;;;;;;5005451;28;19914;-76
2022/09/16 04:10:39;;;;;;;;;;;;;;;;;;4988357;28;19913;-76
2022/09/16 04:13:05;;;;;;;;;;;;;;;;;;5006106;28;19953;-77
2022/09/16 04:15:31;;;;;;;;;;;;;;;;;;4987147;28;19918;-76
2022/09/16 04:17:56;;;;;;;;;;;;;;;;;;4990614;28;20005;-75
2022/09/16 04:20:22;;;;;;;;;;;;;;;;;;5007430;28;19920;-76
2022/09/16 04:22:48;;;;;;;;;;;;;;;;;;4992202;28;20357;-77
2022/09/16 04:25:13;;;;;;;;;;;;;;;;;;5006273;28;19921;-74
2022/09/16 04:27:39;;;;;;;;;;;;;;;;;;4972554;28;19980;-76
2022/09/16 04:30:05;;;;;;;;;;;;;;;;;;5006418;28;19914;-76
2022/09/16 04:32:30;;;;;;;;;;;;;;;;;;4973684;28;19985;-76
2022/09/16 04:34:56;;;;;;;;;;;;;;;;;;4989659;28;19977;-77
2022/09/16 04:37:21;;;;;;;;;;;;;;;;;;5005492;28;19914;-76
2022/09/16 04:39:47;;;;;;;;;;;;;;;;;;5000594;28;19918;-76
2022/09/16 04:42:12;;;;;;;;;;;;;;;;;;4975057;28;19960;-76
2022/09/16 04:44:38;;;;;;;;;;;;;;;;;;4990148;28;19914;-77
2022/09/16 04:47:03;;;;;;;;;;;;;;;;;;5003185;28;20361;-77
2022/09/16 04:49:29;;;;;;;;;;;;;;;;;;5000094;28;19915;-77
2022/09/16 04:51:55;;;;;;;;;;;;;;;;;;4985046;28;19914;-75
2022/09/16 04:54:20;;;;;;;;;;;;;;;;;;4967033;28;19914;-76
2022/09/16 04:56:49;;;;;;;;;;;;;;;;;;4980210;28;19918;-76
2022/09/16 04:59:14;;;;;;;;;;;;;;;;;;4965093;28;20319;-76
2022/09/16 05:01:40;;;;;;;;;;;;;;;;;;4983657;28;19964;-76
2022/09/16 05:04:06;;;;;;;;;;;;;;;;;;5000553;28;19921;-76
2022/09/16 05:06:31;;;;;;;;;;;;;;;;;;4984088;28;20265;-76
2022/09/16 05:08:59;;;;;;;;;;;;;;;;;;5000606;28;19918;-75
2022/09/16 05:11:24;;;;;;;;;;;;;;;;;;4969351;28;19981;-76
2022/09/16 05:13:50;;;;;;;;;;;;;;;;;;4967333;28;19954;-75
2022/09/16 05:16:16;;;;;;;;;;;;;;;;;;4973475;28;19984;-78
2022/09/16 05:18:41;;;;;;;;;;;;;;;;;;5002345;28;19917;-77
2022/09/16 05:21:07;;;;;;;;;;;;;;;;;;4990261;28;19918;-76
2022/09/16 05:23:33;;;;;;;;;;;;;;;;;;4987995;28;19922;-77
2022/09/16 05:25:58;;;;;;;;;;;;;;;;;;4986287;28;19945;-74
2022/09/16 05:28:24;;;;;;;;;;;;;;;;;;4985454;28;19921;-75
2022/09/16 05:30:50;;;;;;;;;;;;;;;;;;4989909;28;20005;-76
2022/09/16 05:33:16;;;;;;;;;;;;;;;;;;4996305;28;19976;-75
2022/09/16 05:35:44;;;;;;;;;;;;;;;;;;4987512;28;20035;-76
2022/09/16 05:38:10;;;;;;;;;;;;;;;;;;4990586;28;19921;-76
2022/09/16 05:40:35;;;;;;;;;;;;;;;;;;5007894;28;19914;-75
2022/09/16 05:43:01;;;;;;;;;;;;;;;;;;4990234;28;19914;-76
2022/09/16 05:45:27;;;;;;;;;;;;;;;;;;5006104;28;19972;-77
2022/09/16 05:47:52;;;;;;;;;;;;;;;;;;5006219;28;19921;-76
2022/09/16 05:50:18;;;;;;;;;;;;;;;;;;5008226;28;19921;-76
2022/09/16 05:52:44;;;;;;;;;;;;;;;;;;5005115;28;19909;-75
2022/09/16 05:55:10;;;;;;;;;;;;;;;;;;5008135;28;19917;-76
2022/09/16 05:57:35;;;;;;;;;;;;;;;;;;4991548;28;19910;-76
2022/09/16 06:00:01;;;;;;;;;;;;;;;;;;4991232;28;19914;-76
2022/09/16 06:02:35;;;;;;;;;;;;;;;;;;4990160;28;19914;-76
2022/09/16 06:05:01;;;;;;;;;;;;;;;;;;4987079;28;20300;-75
2022/09/16 06:07:27;;;;;;;;;;;;;;;;;;5002594;28;19914;-75
2022/09/16 06:09:52;;;;;;;;;;;;;;;;;;4968148;28;19918;-74
2022/09/16 06:12:18;;;;;;;;;;;;;;;;;;5000132;28;19914;-76
2022/09/16 06:14:43;;;;;;;;;;;;;;;;;;5002635;28;19922;-77
2022/09/16 06:17:09;;;;;;;;;;;;;;;;;;4970223;28;20157;-75
2022/09/16 06:19:35;;;;;;;;;;;;;;;;;;4988240;28;19914;-74
2022/09/16 06:22:01;;;;;;;;;;;;;;;;;;5005963;28;19920;-75
2022/09/16 06:24:26;;;;;;;;;;;;;;;;;;5007308;28;19918;-76
2022/09/16 06:26:55;;;;;;;;;;;;;;;;;;4973391;28;19918;-76
2022/09/16 06:29:21;;;;;;;;;;;;;;;;;;5002212;28;19914;-77
2022/09/16 06:31:47;;;;;;;;;;;;;;;;;;4993029;28;20071;-78
2022/09/16 06:34:12;;;;;;;;;;;;;;;;;;5008386;28;19917;-77
2022/09/16 06:36:38;;;;;;;;;;;;;;;;;;4991634;28;19921;-77
2022/09/16 06:39:04;;;;;;;;;;;;;;;;;;4994579;28;19909;-77
2022/09/16 06:41:30;;;;;;;;;;;;;;;;;;5002145;28;19914;-76
2022/09/16 06:43:56;;;;;;;;;;;;;;;;;;5003829;28;19980;-74
2022/09/16 06:46:22;;;;;;;;;;;;;;;;;;5006528;28;20015;-76
2022/09/16 06:48:49;;;;;;;;;;;;;;;;;;5004858;28;19918;-75
2022/09/16 06:51:15;;;;;;;;;;;;;;;;;;4982360;28;19914;-76
2022/09/16 06:53:43;;;;;;;;;;;;;;;;;;4971542;28;19918;-74
2022/09/16 06:56:13;;;;;;;;;;;;;;;;;;4988150;28;19964;-76
2022/09/16 06:58:38;;;;;;;;;;;;;;;;;;5003176;28;19914;-75
2022/09/16 07:01:04;;;;;;;;;;;;;;;;;;5001863;28;19914;-76
2022/09/16 07:03:30;;;;;;;;;;;;;;;;;;4983960;28;19921;-75
2022/09/16 07:05:56;;;;;;;;;;;;;;;;;;4975062;28;19937;-74
2022/09/16 07:08:22;;;;;;;;;;;;;;;;;;4989321;28;19914;-75
2022/09/16 07:10:47;;;;;;;;;;;;;;;;;;4986823;28;19914;-75
2022/09/16 07:13:12;;;;;;;;;;;;;;;;;;5005612;28;19921;-75
2022/09/16 07:15:38;;;;;;;;;;;;;;;;;;5000966;28;19988;-75
2022/09/16 07:18:03;;;;;;;;;;;;;;;;;;5000520;28;20334;-75
2022/09/16 07:20:29;;;;;;;;;;;;;;;;;;5000578;28;20004;-75
2022/09/16 07:22:55;;;;;;;;;;;;;;;;;;4999655;28;20380;-76
2022/09/16 07:25:21;;;;;;;;;;;;;;;;;;5004016;28;19936;-76
2022/09/16 07:27:49;;;;;;;;;;;;;;;;;;5006874;28;20376;-76
2022/09/16 07:30:15;;;;;;;;;;;;;;;;;;4999177;28;20331;-77
2022/09/16 07:32:41;;;;;;;;;;;;;;;;;;5001738;28;19953;-76
2022/09/16 07:35:07;;;;;;;;;;;;;;;;;;5002311;28;19917;-74
2022/09/16 07:37:32;;;;;;;;;;;;;;;;;;4985363;28;19921;-75
2022/09/16 07:39:58;;;;;;;;;;;;;;;;;;5003784;28;19952;-77
2022/09/16 07:42:23;;;;;;;;;;;;;;;;;;5003612;28;20285;-75
2022/09/16 07:44:49;;;;;;;;;;;;;;;;;;5002923;28;19920;-76
2022/09/16 07:47:14;;;;;;;;;;;;;;;;;;5000855;28;20347;-76
2022/09/16 07:49:40;;;;;;;;;;;;;;;;;;4987767;28;19913;-76
2022/09/16 07:52:06;;;;;;;;;;;;;;;;;;5004453;28;19921;-77
2022/09/16 07:54:31;;;;;;;;;;;;;;;;;;5003271;28;19922;-77
2022/09/16 07:56:57;;;;;;;;;;;;;;;;;;5001268;28;19918;-78
2022/09/16 07:59:22;;;;;;;;;;;;;;;;;;5002698;28;19921;-78
2022/09/16 08:01:48;;;;;;;;;;;;;;;;;;4984750;28;19914;-77
2022/09/16 08:04:13;;;;;;;;;;;;;;;;;;5002453;28;19914;-80
2022/09/16 08:06:39;;;;;;;;;;;;;;;;;;5002868;28;19920;-78
2022/09/16 08:09:04;;;;;;;;;;;;;;;;;;4983889;28;19918;-77
2022/09/16 08:11:30;;;;;;;;;;;;;;;;;;4999432;28;20324;-79
2022/09/16 08:13:55;;;;;;;;;;;;;;;;;;5002061;28;19913;-78
2022/09/16 08:16:21;;;;;;;;;;;;;;;;;;5001447;28;20401;-78
2022/09/16 08:18:47;;;;;;;;;;;;;;;;;;5000839;28;19922;-78
2022/09/16 08:21:12;;;;;;;;;;;;;;;;;;5000264;28;19975;-77
2022/09/16 08:23:37;;;;;;;;;;;;;;;;;;4968210;28;19914;-78
2022/09/16 08:26:03;;;;;;;;;;;;;;;;;;4999173;28;19914;-78
2022/09/16 08:28:28;;;;;;;;;;;;;;;;;;5000111;28;19918;-76
2022/09/16 08:30:54;;;;;;;;;;;;;;;;;;4997344;28;20113;-78
2022/09/16 08:33:22;;;;;;;;;;;;;;;;;;4978508;28;19940;-79
2022/09/16 08:35:47;;;;;;;;;;;;;;;;;;4980183;28;19922;-76
2022/09/16 08:38:13;;;;;;;;;;;;;;;;;;4997494;28;20285;-79
2022/09/16 08:40:38;;;;;;;;;;;;;;;;;;4982104;28;20228;-77
2022/09/16 08:43:04;;;;;;;;;;;;;;;;;;4995800;28;19918;-77
2022/09/16 08:45:29;;;;;;;;;;;;;;;;;;5000492;28;19921;-77
2022/09/16 08:47:55;;;;;;;;;;;;;;;;;;4999801;28;19917;-76
2022/09/16 08:50:20;;;;;;;;;;;;;;;;;;4984100;28;19921;-78
2022/09/16 08:52:46;;;;;;;;;;;;;;;;;;4987788;28;20378;-78
2022/09/16 08:55:11;;;;;;;;;;;;;;;;;;5004813;28;20278;-77
2022/09/16 08:57:37;;;;;;;;;;;;;;;;;;5002531;28;20005;-77
2022/09/16 09:00:03;;;;;;;;;;;;;;;;;;4985835;28;19961;-77
2022/09/16 09:02:29;;;;;;;;;;;;;;;;;;4999140;28;19940;-77
2022/09/16 09:04:54;;;;;;;;;;;;;;;;;;5001010;28;19996;-76
2022/09/16 09:07:20;;;;;;;;;;;;;;;;;;5002850;28;19924;-76
2022/09/16 09:09:45;;;;;;;;;;;;;;;;;;4965843;28;19914;-78
2022/09/16 09:12:11;;;;;;;;;;;;;;;;;;4978916;28;19910;-76
2022/09/16 09:14:37;;;;;;;;;;;;;;;;;;4996469;28;20404;-78
2022/09/16 09:17:02;;;;;;;;;;;;;;;;;;4964058;28;19914;-77
2022/09/16 09:19:28;;;;;;;;;;;;;;;;;;5000813;28;20373;-78
2022/09/16 09:21:53;;;;;;;;;;;;;;;;;;4980701;28;20285;-77
2022/09/16 09:24:19;;;;;;;;;;;;;;;;;;4981262;28;19921;-78
2022/09/16 09:26:44;;;;;;;;;;;;;;;;;;4997103;28;19914;-76
2022/09/16 09:29:10;;;;;;;;;;;;;;;;;;4997582;28;19937;-77
2022/09/16 09:31:38;;;;;;;;;;;;;;;;;;4985578;28;20274;-76
2022/09/16 09:34:03;;;;;;;;;;;;;;;;;;4986575;28;19941;-77
2022/09/16 09:36:29;;;;;;;;;;;;;;;;;;5000998;28;19918;-76
2022/09/16 09:38:54;;;;;;;;;;;;;;;;;;4983933;28;19976;-75
2022/09/16 09:41:20;;;;;;;;;;;;;;;;;;4998392;28;19910;-77
2022/09/16 09:43:45;;;;;;;;;;;;;;;;;;4984311;28;19914;-77
2022/09/16 09:46:11;;;;;;;;;;;;;;;;;;4987572;28;19939;-77
2022/09/16 09:48:37;;;;;;;;;;;;;;;;;;5002089;28;19918;-76
2022/09/16 09:51:06;;;;;;;;;;;;;;;;;;4967813;28;20293;-78
2022/09/16 09:53:31;;;;;;;;;;;;;;;;;;4985672;28;19918;-77
2022/09/16 09:55:57;;;;;;;;;;;;;;;;;;4982307;28;20285;-77
2022/09/16 09:58:23;;;;;;;;;;;;;;;;;;4979613;28;19957;-79
2022/09/16 10:00:51;;;;;;;;;;;;;;;;;;4997284;28;19918;-76
2022/09/16 10:03:17;;;;;;;;;;;;;;;;;;4998296;28;19990;-78
2022/09/16 10:05:42;;;;;;;;;;;;;;;;;;4982242;28;19969;-77
2022/09/16 10:08:08;;;;;;;;;;;;;;;;;;4984001;28;19918;-77
2022/09/16 10:10:33;;;;;;;;;;;;;;;;;;4997834;28;20277;-78
2022/09/16 10:12:58;;;;;;;;;;;;;;;;;;4966939;28;19921;-79
2022/09/16 10:15:24;;;;;;;;;;;;;;;;;;5000302;28;19917;-78
2022/09/16 10:17:50;;;;;;;;;;;;;;;;;;4998881;28;19914;-77
2022/09/16 10:20:15;;;;;;;;;;;;;;;;;;4985064;28;20316;-77
2022/09/16 10:22:41;;;;;;;;;;;;;;;;;;4984006;28;20013;-77
2022/09/16 10:25:06;;;;;;;;;;;;;;;;;;4982758;28;20315;-79
2022/09/16 10:27:35;;;;;;;;;;;;;;;;;;4998504;28;19921;-79
2022/09/16 10:30:01;;;;;;;;;;;;;;;;;;4991638;28;19914;-78
2022/09/16 10:32:27;;;;;;;;;;;;;;;;;;4983693;28;19925;-79
2022/09/16 10:34:52;;;;;;;;;;;;;;;;;;4998072;28;20005;-80
2022/09/16 10:37:18;;;;;;;;;;;;;;;;;;4981383;28;19914;-78
2022/09/16 10:39:43;;;;;;;;;;;;;;;;;;4967729;28;19914;-79
2022/09/16 10:42:09;;;;;;;;;;;;;;;;;;4980773;28;19914;-78
2022/09/16 10:44:34;;;;;;;;;;;;;;;;;;4981056;28;19913;-77
2022/09/16 10:47:00;;;;;;;;;;;;;;;;;;4998648;28;19937;-79
2022/09/16 10:49:25;;;;;;;;;;;;;;;;;;4984298;28;20000;-78
2022/09/16 10:51:51;;;;;;;;;;;;;;;;;;4999553;28;19985;-77
2022/09/16 10:54:17;;;;;;;;;;;;;;;;;;4966408;28;19925;-79
2022/09/16 10:56:42;;;;;;;;;;;;;;;;;;4969328;28;19913;-78
2022/09/16 10:59:08;;;;;;;;;;;;;;;;;;4999810;28;19953;-78
2022/09/16 11:01:34;;;;;;;;;;;;;;;;;;4999616;28;19925;-77
2022/09/16 11:03:59;;;;;;;;;;;;;;;;;;4967753;28;19913;-77
2022/09/16 11:06:25;;;;;;;;;;;;;;;;;;5000896;28;20000;-77
2022/09/16 11:08:50;;;;;;;;;;;;;;;;;;4983984;28;19952;-76
2022/09/16 11:11:16;;;;;;;;;;;;;;;;;;4986524;28;19914;-78
2022/09/16 11:13:42;;;;;;;;;;;;;;;;;;5004247;28;19914;-78
2022/09/16 11:16:07;;;;;;;;;;;;;;;;;;4968174;28;19937;-78
2022/09/16 11:18:33;;;;;;;;;;;;;;;;;;4987801;28;19914;-77
2022/09/16 11:20:58;;;;;;;;;;;;;;;;;;4990962;28;19910;-77
2022/09/16 11:23:25;;;;;;;;;;;;;;;;;;5000182;28;19956;-77
2022/09/16 11:25:51;;;;;;;;;;;;;;;;;;4999938;28;19914;-77
2022/09/16 11:28:17;;;;;;;;;;;;;;;;;;4999717;28;19921;-78
2022/09/16 11:30:42;;;;;;;;;;;;;;;;;;4984434;28;19914;-77
2022/09/16 11:33:08;;;;;;;;;;;;;;;;;;4965075;28;19976;-77
2022/09/16 11:35:34;;;;;;;;;;;;;;;;;;4985002;28;19925;-77
2022/09/16 11:37:59;;;;;;;;;;;;;;;;;;4981599;28;19975;-76
2022/09/16 11:40:25;;;;;;;;;;;;;;;;;;4998551;28;19913;-77
2022/09/16 11:42:50;;;;;;;;;;;;;;;;;;4982648;28;19921;-77
2022/09/16 11:45:16;;;;;;;;;;;;;;;;;;4998433;28;19918;-77
2022/09/16 11:47:41;;;;;;;;;;;;;;;;;;4997289;28;19921;-78
2022/09/16 11:50:07;;;;;;;;;;;;;;;;;;4998184;28;19965;-77
2022/09/16 11:52:33;;;;;;;;;;;;;;;;;;4997829;28;20028;-77
2022/09/16 11:54:58;;;;;;;;;;;;;;;;;;4998080;28;19925;-78
2022/09/16 11:57:24;;;;;;;;;;;;;;;;;;4984372;28;19914;-76
2022/09/16 11:59:50;;;;;;;;;;;;;;;;;;4997726;28;19957;-77
2022/09/16 12:02:16;;;;;;;;;;;;;;;;;;4996072;28;20381;-77
2022/09/16 12:04:42;;;;;;;;;;;;;;;;;;4968986;28;19920;-78
2022/09/16 12:07:07;;;;;;;;;;;;;;;;;;4979566;28;19918;-79
2022/09/16 12:09:33;;;;;;;;;;;;;;;;;;4967173;28;19914;-78
2022/09/16 12:11:58;;;;;;;;;;;;;;;;;;4985127;28;19964;-78
2022/09/16 12:14:24;;;;;;;;;;;;;;;;;;4984667;28;19937;-77
2022/09/16 12:16:49;;;;;;;;;;;;;;;;;;5002244;28;19914;-78
2022/09/16 12:19:15;;;;;;;;;;;;;;;;;;4990782;28;19964;-78
2022/09/16 12:21:41;;;;;;;;;;;;;;;;;;5001819;28;19918;-77
2022/09/16 12:24:06;;;;;;;;;;;;;;;;;;5004612;28;19921;-77
2022/09/16 12:26:32;;;;;;;;;;;;;;;;;;4972895;28;20000;-77
2022/09/16 12:28:58;;;;;;;;;;;;;;;;;;4990741;28;19918;-77
2022/09/16 12:31:23;;;;;;;;;;;;;;;;;;4977603;28;19913;-76
2022/09/16 12:33:49;;;;;;;;;;;;;;;;;;4983128;28;19961;-78
2022/09/16 12:36:14;;;;;;;;;;;;;;;;;;4999580;28;19918;-77
2022/09/16 12:38:40;;;;;;;;;;;;;;;;;;4967049;28;19914;-77
2022/09/16 12:41:06;;;;;;;;;;;;;;;;;;5000205;28;20056;-78
2022/09/16 12:43:31;;;;;;;;;;;;;;;;;;4983745;28;19918;-77
2022/09/16 12:45:57;;;;;;;;;;;;;;;;;;4998057;28;19924;-77
2022/09/16 12:48:22;;;;;;;;;;;;;;;;;;4964704;28;19942;-79
2022/09/16 12:50:48;;;;;;;;;;;;;;;;;;4986395;28;20078;-78
2022/09/16 12:53:13;;;;;;;;;;;;;;;;;;4977666;28;19977;-77
2022/09/16 12:55:39;;;;;;;;;;;;;;;;;;4976171;28;19918;-76
2022/09/16 12:58:04;;;;;;;;;;;;;;;;;;4992881;28;19910;-77
2022/09/16 13:00:30;;;;;;;;;;;;;;;;;;4979020;28;20309;-78
2022/09/16 13:02:55;;;;;;;;;;;;;;;;;;4979969;28;19921;-78
2022/09/16 13:05:22;;;;;;;;;;;;;;;;;;4993209;28;19965;-78
2022/09/16 13:07:47;;;;;;;;;;;;;;;;;;4991564;28;19926;-78
2022/09/16 13:10:12;;;;;;;;;;;;;;;;;;4991965;28;19914;-77
2022/09/16 13:12:38;;;;;;;;;;;;;;;;;;4991555;28;20316;-77
2022/09/16 13:15:03;;;;;;;;;;;;;;;;;;4990226;28;19937;-76
2022/09/16 13:17:29;;;;;;;;;;;;;;;;;;4991737;28;20075;-76
2022/09/16 13:19:55;;;;;;;;;;;;;;;;;;4975770;28;19914;-78
2022/09/16 13:22:20;;;;;;;;;;;;;;;;;;4981712;28;20400;-77
2022/09/16 13:24:46;;;;;;;;;;;;;;;;;;4999576;28;19921;-76
2022/09/16 13:27:11;;;;;;;;;;;;;;;;;;5000767;28;19964;-77
2022/09/16 13:29:37;;;;;;;;;;;;;;;;;;4968177;28;19961;-77
2022/09/16 13:32:02;;;;;;;;;;;;;;;;;;4998433;28;19917;-76
2022/09/16 13:34:28;;;;;;;;;;;;;;;;;;5006121;22;20544;-82
2022/09/16 13:36:54;;;;;;;;;;;;;;;;;;4978960;28;19914;-84
2022/09/16 13:39:19;;;;;;;;;;;;;;;;;;4996167;28;19921;-84
2022/09/16 13:41:45;;;;;;;;;;;;;;;;;;4995180;28;19910;-83
2022/09/16 13:44:10;;;;;;;;;;;;;;;;;;4978790;28;20234;-80
2022/09/16 13:46:35;;;;;;;;;;;;;;;;;;4979330;28;19920;-83
2022/09/16 13:49:01;;;;;;;;;;;;;;;;;;4996201;28;19914;-84
2022/09/16 13:51:26;;;;;;;;;;;;;;;;;;4996263;28;19921;-85
2022/09/16 13:53:52;;;;;;;;;;;;;;;;;;4996078;28;19913;-82
2022/09/16 13:56:17;;;;;;;;;;;;;;;;;;4995041;28;20456;-80
2022/09/16 13:58:42;;;;;;;;;;;;;;;;;;4998784;28;19925;-84
2022/09/16 14:01:08;;;;;;;;;;;;;;;;;;5002640;28;19913;-80
2022/09/16 14:03:33;;;;;;;;;;;;;;;;;;5001258;28;19913;-82
2022/09/16 14:05:59;;;;;;;;;;;;;;;;;;5000932;28;20024;-80
2022/09/16 14:08:27;;;;;;;;;;;;;;;;;;5001788;28;20340;-82
2022/09/16 14:10:52;;;;;;;;;;;;;;;;;;4969119;28;19914;-79
2022/09/16 14:13:18;;;;;;;;;;;;;;;;;;5002191;28;19956;-82
2022/09/16 14:15:43;;;;;;;;;;;;;;;;;;5013388;28;20420;-82
2022/09/16 14:18:08;;;;;;;;;;;;;;;;;;4984896;28;19921;-81
2022/09/16 14:20:34;;;;;;;;;;;;;;;;;;5008460;28;19913;-82
2022/09/16 14:23:00;;;;;;;;;;;;;;;;;;5006727;28;19930;-83
2022/09/16 14:25:25;;;;;;;;;;;;;;;;;;4990705;28;19948;-81
2022/09/16 14:27:50;;;;;;;;;;;;;;;;;;5006072;28;19961;-84
2022/09/16 14:30:16;;;;;;;;;;;;;;;;;;4990796;28;19914;-79
2022/09/16 14:32:41;;;;;;;;;;;;;;;;;;4975401;28;19914;-80
2022/09/16 14:35:07;;;;;;;;;;;;;;;;;;4990583;28;19918;-81
2022/09/16 14:37:33;;;;;;;;;;;;;;;;;;5007193;28;19914;-84
2022/09/16 14:39:58;;;;;;;;;;;;;;;;;;5008676;28;20061;-80
2022/09/16 14:42:24;;;;;;;;;;;;;;;;;;4973179;28;19921;-83
2022/09/16 14:44:49;;;;;;;;;;;;;;;;;;4989559;28;19945;-79
2022/09/16 14:47:14;;;;;;;;;;;;;;;;;;5005116;28;19913;-79
2022/09/16 14:49:40;;;;;;;;;;;;;;;;;;5006080;28;19968;-81
2022/09/16 14:52:05;;;;;;;;;;;;;;;;;;5001576;28;19938;-81
2022/09/16 14:54:31;;;;;;;;;;;;;;;;;;5006400;28;19951;-80
2022/09/16 14:56:56;;;;;;;;;;;;;;;;;;5007772;28;19968;-79
2022/09/16 14:59:22;;;;;;;;;;;;;;;;;;5003993;28;19914;-83
2022/09/16 15:01:47;;;;;;;;;;;;;;;;;;4986827;28;19910;-83
2022/09/16 15:04:13;;;;;;;;;;;;;;;;;;5006098;28;19918;-81
2022/09/16 15:06:38;;;;;;;;;;;;;;;;;;4987506;28;19960;-81
2022/09/16 15:09:03;;;;;;;;;;;;;;;;;;5004272;28;19918;-79
2022/09/16 15:11:29;;;;;;;;;;;;;;;;;;5002685;28;19914;-79
2022/09/16 15:13:54;;;;;;;;;;;;;;;;;;5001292;28;20357;-79
2022/09/16 15:16:20;;;;;;;;;;;;;;;;;;4999895;28;20376;-78
2022/09/16 15:18:45;;;;;;;;;;;;;;;;;;5000770;28;19914;-80
2022/09/16 15:21:11;;;;;;;;;;;;;;;;;;5002192;28;19914;-81
2022/09/16 15:23:37;;;;;;;;;;;;;;;;;;5003131;28;19913;-79
2022/09/16 15:26:02;;;;;;;;;;;;;;;;;;5000563;28;19981;-79
2022/09/16 15:28:28;;;;;;;;;;;;;;;;;;5007349;28;19906;-81
2022/09/16 15:30:54;;;;;;;;;;;;;;;;;;4983213;28;19956;-80
2022/09/16 15:33:22;;;;;;;;;;;;;;;;;;5000800;28;19960;-81
2022/09/16 15:35:47;;;;;;;;;;;;;;;;;;4999507;28;19917;-80
2022/09/16 15:38:13;;;;;;;;;;;;;;;;;;4994917;28;20267;-78
2022/09/16 15:40:38;;;;;;;;;;;;;;;;;;4977914;28;20041;-77
2022/09/16 15:43:03;;;;;;;;;;;;;;;;;;4996067;28;19973;-85
2022/09/16 15:45:29;;;;;;;;;;;;;;;;;;4993118;28;20393;-79
2022/09/16 15:47:55;;;;;;;;;;;;;;;;;;4992857;28;20353;-82
2022/09/16 15:50:20;;;;;;;;;;;;;;;;;;4994855;28;20004;-90
2022/09/16 15:52:46;;;;;;;;;;;;;;;;;;4978831;28;19945;-81
2022/09/16 15:55:11;;;;;;;;;;;;;;;;;;4992472;28;20328;-83
2022/09/16 15:57:37;;;;;;;;;;;;;;;;;;4986128;28;19922;-80
2022/09/16 16:00:12;;;;;;;;;;;;;;;;;;4993108;28;19993;-82
2022/09/16 16:02:41;;;;;;;;;;;;;;;;;;4992107;28;19957;-83
2022/09/16 16:05:07;;;;;;;;;;;;;;;;;;4993178;28;19960;-84
2022/09/16 16:07:32;;;;;;;;;;;;;;;;;;4993234;28;19936;-81
2022/09/16 16:09:58;;;;;;;;;;;;;;;;;;4993364;28;19956;-82
2022/09/16 16:12:23;;;;;;;;;;;;;;;;;;4993180;28;19968;-81
2022/09/16 16:14:48;;;;;;;;;;;;;;;;;;4992463;28;20403;-81
2022/09/16 16:17:14;;;;;;;;;;;;;;;;;;4993066;28;19941;-83
2022/09/16 16:19:40;;;;;;;;;;;;;;;;;;4992071;28;20361;-83
2022/09/16 16:22:05;;;;;;;;;;;;;;;;;;4993211;28;19918;-82
2022/09/16 16:24:32;;;;;;;;;;;;;;;;;;4991661;28;19922;-82
2022/09/16 16:26:57;;;;;;;;;;;;;;;;;;4993567;28;19914;-81
2022/09/16 16:29:22;;;;;;;;;;;;;;;;;;4992034;28;20293;-85
2022/09/16 16:31:48;;;;;;;;;;;;;;;;;;4991244;28;19913;-82
2022/09/16 16:34:13;;;;;;;;;;;;;;;;;;4991620;28;19925;-80